Time;durP1;ratioP1;P1;durP2;ratioP2;P2;SDS_P1;SDS_P2;PMS_P1;PMS_P2;Temp;Humidity;BMP_temperature;BMP_pressure;BME280_temperature;BME280_humidity;BME280_pressure;Samples;Min_cycle;Max_cycle;Signal;HPM_P1;HPM_P2
2022/10/05 00:01:43;;;;;;;;;;;15.60;99.90;;;;;;5093654;28;19916;-73
2022/10/05 00:04:14;;;;;;;;;;;15.60;99.90;;;;;;5073147;28;19995;-74
2022/10/05 00:06:56;;;;;;;;;;;15.60;99.90;;;;;;5087579;28;20031;-73
2022/10/05 00:09:22;;;;;;;;;;;15.60;99.90;;;;;;5095416;28;20218;-73
2022/10/05 00:11:48;;;;;;;;;;;15.60;99.90;;;;;;5093313;28;19912;-73
2022/10/05 00:14:15;;;;;;;;;;;15.60;99.90;;;;;;5094372;28;19915;-74
2022/10/05 00:16:41;;;;;;;;;;;15.50;99.90;;;;;;5089574;28;19919;-73
2022/10/05 00:19:11;;;;;;;;;;;15.60;99.90;;;;;;5095096;28;19912;-73
2022/10/05 00:21:36;;;;;;;;;;;15.60;99.90;;;;;;5077184;28;20242;-73
2022/10/05 00:24:08;;;;;;;;;;;15.60;99.90;;;;;;5092998;28;19920;-73
2022/10/05 00:26:34;;;;;;;;;;;15.60;99.90;;;;;;5090673;28;19908;-73
2022/10/05 00:29:00;;;;;;;;;;;15.60;99.90;;;;;;5093897;28;19920;-74
2022/10/05 00:31:29;;;;;;;;;;;15.60;99.90;;;;;;5093855;28;19916;-73
2022/10/05 00:33:55;;;;;;;;;;;15.60;99.90;;;;;;5094657;28;19919;-73
2022/10/05 00:36:21;;;;;;;;;;;15.60;99.90;;;;;;5092948;28;20223;-73
2022/10/05 00:38:46;;;;;;;;;;;15.60;99.90;;;;;;5093548;28;19912;-74
2022/10/05 00:41:41;;;;;;;;;;;15.60;99.90;;;;;;5094437;28;19908;-73
2022/10/05 00:44:25;;;;;;;;;;;15.60;99.90;;;;;;5057570;28;19962;-73
2022/10/05 00:47:09;;;;;;;;;;;15.60;99.90;;;;;;5083768;28;20346;-72
2022/10/05 00:49:53;;;;;;;;;;;15.60;99.90;;;;;;5089554;28;19943;-73
2022/10/05 00:52:39;;;;;;;;;;;15.60;99.90;;;;;;5074894;28;19955;-73
2022/10/05 00:55:23;;;;;;;;;;;15.50;99.90;;;;;;5075644;28;19935;-73
2022/10/05 00:57:55;;;;;;;;;;;15.50;99.90;;;;;;5092638;28;20200;-73
2022/10/05 01:00:23;;;;;;;;;;;15.50;99.90;;;;;;5080530;28;19963;-72
2022/10/05 01:03:00;;;;;;;;;;;15.50;99.90;;;;;;5088188;28;19912;-73
2022/10/05 01:05:28;;;;;;;;;;;15.50;99.90;;;;;;5081777;28;19912;-73
2022/10/05 01:08:00;;;;;;;;;;;15.50;99.90;;;;;;5076886;28;19916;-74
2022/10/05 01:10:36;;;;;;;;;;;15.50;99.90;;;;;;5081812;28;19920;-73
2022/10/05 01:13:31;;;;;;;;;;;15.50;99.90;;;;;;5071149;28;19916;-74
2022/10/05 01:15:56;;;;;;;;;;;15.50;99.90;;;;;;5079465;28;19915;-74
2022/10/05 01:18:25;;;;;;;;;;;15.50;99.90;;;;;;5092963;28;19957;-73
2022/10/05 01:21:02;;;;;;;;;;;15.50;99.90;;;;;;5094196;28;19912;-73
2022/10/05 01:23:27;;;;;;;;;;;15.50;99.90;;;;;;5093647;28;19916;-73
2022/10/05 01:26:11;;;;;;;;;;;15.50;99.90;;;;;;5094734;28;19966;-73
2022/10/05 01:28:41;;;;;;;;;;;15.50;99.90;;;;;;5091011;28;19912;-73
2022/10/05 01:31:25;;;;;;;;;;;15.50;99.90;;;;;;5098099;28;20257;-74
2022/10/05 01:33:56;;;;;;;;;;;15.50;99.90;;;;;;5097492;28;19991;-74
2022/10/05 01:36:37;;;;;;;;;;;15.50;99.90;;;;;;5096796;28;19916;-72
2022/10/05 01:39:02;;;;;;;;;;;15.50;99.90;;;;;;5079258;28;20302;-74
2022/10/05 01:41:39;;;;;;;;;;;15.50;99.90;;;;;;5095443;28;19916;-73
2022/10/05 01:44:16;;;;;;;;;;;15.50;99.90;;;;;;5093886;28;19912;-72
2022/10/05 01:47:05;;;;;;;;;;;15.50;99.90;;;;;;5096172;28;19931;-74
2022/10/05 01:49:33;;;;;;;;;;;15.50;99.90;;;;;;5094329;28;19920;-73
2022/10/05 01:52:17;;;;;;;;;;;15.50;99.90;;;;;;5095976;28;20000;-72
2022/10/05 01:54:50;;;;;;;;;;;15.50;99.90;;;;;;5096426;28;19916;-73
2022/10/05 01:57:29;;;;;;;;;;;15.50;99.90;;;;;;5078456;28;19932;-73
2022/10/05 02:00:06;;;;;;;;;;;15.50;99.90;;;;;;5078333;28;20053;-74
2022/10/05 02:02:35;;;;;;;;;;;15.50;99.90;;;;;;5085835;28;20295;-73
2022/10/05 02:05:05;;;;;;;;;;;15.50;99.90;;;;;;5096310;28;19912;-73
2022/10/05 02:07:37;;;;;;;;;;;15.50;99.90;;;;;;5096916;28;19908;-74
2022/10/05 02:10:07;;;;;;;;;;;15.40;99.90;;;;;;5096770;28;20253;-72
2022/10/05 02:12:36;;;;;;;;;;;15.40;99.90;;;;;;5080167;28;20219;-73
2022/10/05 02:15:28;;;;;;;;;;;15.40;99.90;;;;;;5077431;28;19930;-73
2022/10/05 02:18:00;;;;;;;;;;;15.40;99.90;;;;;;5014601;28;20202;-73
2022/10/05 02:20:27;;;;;;;;;;;15.40;99.90;;;;;;5014535;28;19920;-74
2022/10/05 02:22:54;;;;;;;;;;;15.40;99.90;;;;;;5015314;28;19924;-75
2022/10/05 02:25:22;;;;;;;;;;;15.40;99.90;;;;;;5009759;28;20193;-74
2022/10/05 02:27:53;;;;;;;;;;;15.30;99.90;;;;;;4998924;28;20000;-73
2022/10/05 02:30:19;;;;;;;;;;;15.40;99.90;;;;;;5005723;28;19909;-74
2022/10/05 02:32:54;;;;;;;;;;;15.30;99.90;;;;;;5014233;28;20041;-73
2022/10/05 02:35:20;;;;;;;;;;;15.30;99.90;;;;;;5010890;28;19921;-74
2022/10/05 02:38:01;;;;;;;;;;;15.30;99.90;;;;;;5014004;28;19910;-74
2022/10/05 02:40:32;;;;;;;;;;;15.30;99.90;;;;;;5012702;28;19909;-74
2022/10/05 02:43:00;;;;;;;;;;;15.20;99.90;;;;;;5013505;28;19922;-73
2022/10/05 02:45:26;;;;;;;;;;;15.20;99.90;;;;;;5011985;28;20016;-74
2022/10/05 02:48:17;;;;;;;;;;;15.20;99.90;;;;;;5000259;28;20059;-73
2022/10/05 02:50:48;;;;;;;;;;;15.20;99.90;;;;;;5010294;28;19917;-74
2022/10/05 02:53:16;;;;;;;;;;;15.20;99.90;;;;;;5013887;28;20217;-74
2022/10/05 02:55:51;;;;;;;;;;;15.10;99.90;;;;;;5077360;28;19919;-74
2022/10/05 02:58:22;;;;;;;;;;;15.10;99.90;;;;;;5083360;28;19978;-75
2022/10/05 03:00:54;;;;;;;;;;;15.10;99.90;;;;;;5089519;28;19921;-74
2022/10/05 03:03:27;;;;;;;;;;;15.10;99.90;;;;;;5086755;28;19920;-74
2022/10/05 03:05:56;;;;;;;;;;;15.10;99.90;;;;;;5088598;28;19916;-74
2022/10/05 03:08:37;;;;;;;;;;;15.10;99.90;;;;;;5088207;28;19919;-73
2022/10/05 03:11:25;;;;;;;;;;;15.00;99.90;;;;;;5086540;28;20359;-74
2022/10/05 03:14:06;;;;;;;;;;;15.10;99.90;;;;;;5070665;28;19923;-74
2022/10/05 03:16:43;;;;;;;;;;;15.00;99.90;;;;;;5083454;28;20361;-73
2022/10/05 03:19:12;;;;;;;;;;;15.00;99.90;;;;;;5088312;28;19913;-73
2022/10/05 03:21:40;;;;;;;;;;;15.00;99.90;;;;;;5078657;28;19920;-74
2022/10/05 03:24:15;;;;;;;;;;;15.00;99.90;;;;;;5091035;28;19920;-74
2022/10/05 03:26:49;;;;;;;;;;;15.00;99.90;;;;;;5068709;28;20054;-73
2022/10/05 03:29:43;;;;;;;;;;;15.00;99.90;;;;;;5087840;28;19919;-74
2022/10/05 03:32:28;;;;;;;;;;;15.00;99.90;;;;;;5019649;28;19936;-75
2022/10/05 03:35:10;;;;;;;;;;;15.00;99.90;;;;;;5085295;28;20022;-74
2022/10/05 03:37:53;;;;;;;;;;;14.90;99.90;;;;;;5088156;28;19919;-73
2022/10/05 03:40:24;;;;;;;;;;;15.00;99.90;;;;;;5087866;28;19994;-73
2022/10/05 03:43:15;;;;;;;;;;;14.90;99.90;;;;;;5090023;28;19920;-73
2022/10/05 03:45:43;;;;;;;;;;;14.90;99.90;;;;;;5086341;28;19908;-73
2022/10/05 03:48:14;;;;;;;;;;;14.90;99.90;;;;;;5095465;28;19928;-73
2022/10/05 03:50:45;;;;;;;;;;;14.90;99.90;;;;;;5099094;28;19958;-73
2022/10/05 03:53:19;;;;;;;;;;;14.90;99.90;;;;;;5082780;28;19916;-73
2022/10/05 03:55:48;;;;;;;;;;;14.90;99.90;;;;;;5077154;28;19908;-74
2022/10/05 03:58:19;;;;;;;;;;;14.90;99.90;;;;;;5091764;28;19916;-73
2022/10/05 04:00:49;;;;;;;;;;;14.90;99.90;;;;;;5089552;28;19916;-73
2022/10/05 04:03:17;;;;;;;;;;;14.90;99.90;;;;;;5077289;28;19912;-74
2022/10/05 04:05:52;;;;;;;;;;;14.90;99.90;;;;;;5091950;28;19916;-73
2022/10/05 04:08:24;;;;;;;;;;;14.90;99.90;;;;;;5093906;28;19913;-73
2022/10/05 04:10:54;;;;;;;;;;;14.90;99.90;;;;;;5093803;28;19919;-73
2022/10/05 04:13:26;;;;;;;;;;;14.90;99.90;;;;;;5094341;28;19908;-74
2022/10/05 04:16:01;;;;;;;;;;;14.90;99.90;;;;;;5095495;28;19912;-73
2022/10/05 04:18:31;;;;;;;;;;;14.90;99.90;;;;;;5092258;28;19957;-72
2022/10/05 04:21:00;;;;;;;;;;;14.90;99.90;;;;;;5082646;28;19955;-73
2022/10/05 04:23:48;;;;;;;;;;;14.90;99.90;;;;;;5086844;28;20003;-73
2022/10/05 04:26:18;;;;;;;;;;;15.00;99.90;;;;;;5095553;28;19961;-72
2022/10/05 04:28:49;;;;;;;;;;;15.00;99.90;;;;;;5092150;28;19913;-74
2022/10/05 04:31:44;;;;;;;;;;;15.00;99.90;;;;;;5092119;28;20311;-73
2022/10/05 04:34:21;;;;;;;;;;;15.00;99.90;;;;;;5019723;28;20274;-73
2022/10/05 04:36:54;;;;;;;;;;;15.00;99.90;;;;;;5087022;28;20002;-74
2022/10/05 04:39:33;;;;;;;;;;;15.10;99.90;;;;;;5091120;28;19912;-73
2022/10/05 04:42:09;;;;;;;;;;;15.00;99.90;;;;;;5094959;28;19916;-72
2022/10/05 04:45:04;;;;;;;;;;;15.00;99.90;;;;;;5094896;28;20325;-73
2022/10/05 04:47:35;;;;;;;;;;;15.00;99.90;;;;;;5069411;28;19920;-73
2022/10/05 04:50:14;;;;;;;;;;;15.10;99.90;;;;;;5083181;28;22302;-72
2022/10/05 04:52:46;;;;;;;;;;;15.10;99.90;;;;;;5105157;28;19912;-73
2022/10/05 04:55:12;;;;;;;;;;;15.10;99.90;;;;;;5092479;28;21694;-73
2022/10/05 04:57:48;;;;;;;;;;;15.10;99.90;;;;;;5072478;28;20030;-72
2022/10/05 05:00:17;;;;;;;;;;;15.00;99.90;;;;;;5091323;28;19912;-74
2022/10/05 05:03:14;;;;;;;;;;;15.10;99.90;;;;;;5108503;28;19911;-74
2022/10/05 05:05:56;;;;;;;;;;;15.10;99.90;;;;;;5096963;28;19916;-73
2022/10/05 05:08:34;;;;;;;;;;;15.00;99.90;;;;;;5096519;28;19916;-74
2022/10/05 05:10:59;;;;;;;;;;;15.10;99.90;;;;;;5098081;28;19913;-73
2022/10/05 05:13:40;;;;;;;;;;;15.00;99.90;;;;;;5110334;28;19908;-73
2022/10/05 05:16:08;;;;;;;;;;;15.10;99.90;;;;;;5066548;28;19912;-72
2022/10/05 05:18:43;;;;;;;;;;;15.00;99.90;;;;;;5084574;28;19962;-73
2022/10/05 05:21:27;;;;;;;;;;;15.00;99.90;;;;;;5067413;28;19946;-72
2022/10/05 05:24:02;;;;;;;;;;;15.00;99.90;;;;;;5070580;28;19920;-73
2022/10/05 05:26:46;;;;;;;;;;;15.00;99.90;;;;;;5091703;28;19916;-74
2022/10/05 05:29:32;;;;;;;;;;;15.00;99.90;;;;;;5091205;28;19920;-73
2022/10/05 05:32:06;;;;;;;;;;;15.00;99.90;;;;;;5094376;28;19951;-73
2022/10/05 05:34:39;;;;;;;;;;;15.00;99.90;;;;;;5095205;28;19916;-72
2022/10/05 05:37:11;;;;;;;;;;;15.00;99.90;;;;;;5097015;28;20295;-73
2022/10/05 05:39:42;;;;;;;;;;;15.00;99.90;;;;;;5098020;28;20184;-72
2022/10/05 05:42:15;;;;;;;;;;;15.00;99.90;;;;;;5095172;28;19916;-72
2022/10/05 05:44:47;;;;;;;;;;;14.90;99.90;;;;;;5080477;28;19912;-72
2022/10/05 05:47:39;;;;;;;;;;;14.90;99.90;;;;;;5074514;28;20449;-72
2022/10/05 05:50:23;;;;;;;;;;;14.90;99.90;;;;;;5089322;28;20292;-72
2022/10/05 05:52:59;;;;;;;;;;;15.00;99.90;;;;;;5076052;28;20003;-72
2022/10/05 05:55:29;;;;;;;;;;;14.90;99.90;;;;;;5097927;28;20272;-72
2022/10/05 05:57:58;;;;;;;;;;;14.90;99.90;;;;;;5092987;28;19964;-72
2022/10/05 06:00:46;;;;;;;;;;;15.00;99.90;;;;;;5095379;28;20272;-73
2022/10/05 06:03:30;;;;;;;;;;;14.90;99.90;;;;;;5082177;28;20039;-72
2022/10/05 06:06:08;;;;;;;;;;;14.90;99.90;;;;;;5097029;28;20348;-73
2022/10/05 06:08:38;;;;;;;;;;;14.90;99.90;;;;;;5095926;28;19912;-72
2022/10/05 06:11:18;;;;;;;;;;;14.90;99.90;;;;;;5081036;28;19915;-73
2022/10/05 06:13:50;;;;;;;;;;;14.90;99.90;;;;;;5079686;28;19927;-73
2022/10/05 06:16:25;;;;;;;;;;;15.00;99.90;;;;;;5097935;28;20003;-73
2022/10/05 06:18:55;;;;;;;;;;;15.00;99.90;;;;;;5095329;28;20011;-73
2022/10/05 06:21:43;;;;;;;;;;;15.00;99.90;;;;;;5100071;28;20008;-72
2022/10/05 06:24:43;;;;;;;;;;;15.00;99.90;;;;;;5095022;28;19920;-73
2022/10/05 06:27:24;;;;;;;;;;;15.00;99.90;;;;;;5078609;28;20048;-72
2022/10/05 06:30:10;;;;;;;;;;;15.00;99.90;;;;;;5086844;28;20318;-72
2022/10/05 06:32:52;;;;;;;;;;;15.00;99.90;;;;;;5088684;28;20269;-73
2022/10/05 06:35:40;;;;;;;;;;;15.00;99.90;;;;;;5096099;28;20012;-73
2022/10/05 06:38:19;;;;;;;;;;;15.10;99.90;;;;;;5038304;28;20363;-73
2022/10/05 06:41:03;;;;;;;;;;;15.10;99.90;;;;;;5101359;28;20282;-72
2022/10/05 06:43:41;;;;;;;;;;;15.10;99.90;;;;;;5097122;28;19919;-73
2022/10/05 06:46:24;;;;;;;;;;;15.10;99.90;;;;;;5075706;28;19912;-72
2022/10/05 06:49:01;;;;;;;;;;;15.10;99.90;;;;;;5085644;28;19924;-73
2022/10/05 06:52:08;;;;;;;;;;;15.10;99.90;;;;;;5084968;28;20251;-72
2022/10/05 06:54:34;;;;;;;;;;;15.20;99.90;;;;;;5008835;28;19909;-72
2022/10/05 06:57:11;;;;;;;;;;;15.20;99.90;;;;;;5002247;28;20253;-73
2022/10/05 06:59:49;;;;;;;;;;;15.20;99.90;;;;;;5008222;28;19992;-72
2022/10/05 07:02:27;;;;;;;;;;;15.20;99.90;;;;;;5011019;28;20008;-73
2022/10/05 07:05:11;;;;;;;;;;;15.20;99.90;;;;;;5008744;28;20225;-72
2022/10/05 07:07:46;;;;;;;;;;;15.20;99.90;;;;;;5005044;28;19925;-73
2022/10/05 07:10:21;;;;;;;;;;;15.20;99.90;;;;;;4999151;28;19921;-73
2022/10/05 07:13:10;;;;;;;;;;;15.30;99.90;;;;;;5008703;28;20313;-72
2022/10/05 07:15:54;;;;;;;;;;;15.30;99.90;;;;;;5009264;28;19913;-73
2022/10/05 07:18:20;;;;;;;;;;;15.20;99.90;;;;;;5012211;28;19920;-73
2022/10/05 07:20:54;;;;;;;;;;;15.30;99.90;;;;;;4996906;28;20283;-72
2022/10/05 07:23:53;;;;;;;;;;;15.30;99.90;;;;;;5012885;28;20309;-73
2022/10/05 07:26:38;;;;;;;;;;;15.20;99.90;;;;;;5026333;28;20391;-73
2022/10/05 07:29:23;;;;;;;;;;;15.20;99.90;;;;;;5031403;28;19917;-72
2022/10/05 07:31:59;;;;;;;;;;;15.30;99.90;;;;;;5014041;28;19924;-72
2022/10/05 07:34:34;;;;;;;;;;;15.30;99.90;;;;;;5041245;28;19909;-72
2022/10/05 07:39:56;;;;;;;;;;;15.30;99.90;;;;;;5040490;28;20000;-72
2022/10/05 07:42:31;;;;;;;;;;;15.30;99.90;;;;;;5033563;28;19940;-74
2022/10/05 07:45:08;;;;;;;;;;;15.30;99.90;;;;;;5041465;28;19920;-73
2022/10/05 07:48:10;;;;;;;;;;;15.30;99.90;;;;;;5045436;28;19937;-71
2022/10/05 07:50:55;;;;;;;;;;;15.40;99.90;;;;;;5012137;28;19920;-73
2022/10/05 07:53:35;;;;;;;;;;;15.40;99.90;;;;;;4927451;28;19922;-73
2022/10/05 07:56:20;;;;;;;;;;;15.40;99.90;;;;;;4915816;29;19915;-73
2022/10/05 07:58:50;;;;;;;;;;;15.50;99.90;;;;;;4916288;29;19918;-72
2022/10/05 08:01:28;;;;;;;;;;;15.50;99.90;;;;;;4912399;29;19919;-73
2022/10/05 08:04:12;;;;;;;;;;;15.50;99.90;;;;;;4913530;29;19927;-72
2022/10/05 08:06:55;;;;;;;;;;;15.60;99.90;;;;;;4912124;29;20003;-75
2022/10/05 08:09:27;;;;;;;;;;;15.60;99.90;;;;;;4916765;29;19923;-73
2022/10/05 08:12:07;;;;;;;;;;;15.60;99.90;;;;;;4912907;29;19926;-73
2022/10/05 08:14:46;;;;;;;;;;;15.60;99.90;;;;;;4913702;29;19911;-73
2022/10/05 08:17:32;;;;;;;;;;;15.60;99.90;;;;;;4915570;29;20884;-73
2022/10/05 08:20:08;;;;;;;;;;;15.60;99.90;;;;;;4921922;28;20225;-74
2022/10/05 08:22:40;;;;;;;;;;;15.60;99.90;;;;;;4912176;29;19934;-73
2022/10/05 08:25:11;;;;;;;;;;;15.60;99.90;;;;;;4967197;28;19910;-72
2022/10/05 08:27:45;;;;;;;;;;;15.60;99.90;;;;;;4991953;28;20401;-72
2022/10/05 08:30:12;;;;;;;;;;;15.70;99.90;;;;;;5025639;28;20296;-73
2022/10/05 08:32:44;;;;;;;;;;;15.70;99.90;;;;;;5091712;28;19911;-73
2022/10/05 08:35:18;;;;;;;;;;;15.70;99.90;;;;;;5109863;28;19908;-73
2022/10/05 08:37:49;;;;;;;;;;;15.70;99.90;;;;;;5096037;28;19961;-73
2022/10/05 08:40:20;;;;;;;;;;;15.70;99.90;;;;;;5086253;28;19912;-73
2022/10/05 08:43:08;;;;;;;;;;;15.70;99.90;;;;;;5107315;28;19922;-72
2022/10/05 08:45:42;;;;;;;;;;;15.70;99.90;;;;;;5107331;28;19958;-72
2022/10/05 08:48:27;;;;;;;;;;;15.80;99.90;;;;;;5097901;28;19982;-73
2022/10/05 08:51:16;;;;;;;;;;;15.70;99.90;;;;;;5096983;28;19927;-73
2022/10/05 08:54:00;;;;;;;;;;;15.80;99.90;;;;;;5097523;28;19918;-72
2022/10/05 08:56:37;;;;;;;;;;;15.80;99.90;;;;;;5079979;28;20006;-74
2022/10/05 08:59:12;;;;;;;;;;;15.90;99.90;;;;;;5100385;28;19965;-72
2022/10/05 09:01:54;;;;;;;;;;;15.90;99.90;;;;;;5099326;28;19916;-73
2022/10/05 09:04:28;;;;;;;;;;;15.80;99.90;;;;;;5105179;28;19915;-75
2022/10/05 09:07:07;;;;;;;;;;;15.90;99.90;;;;;;5107579;28;20031;-72
2022/10/05 09:09:53;;;;;;;;;;;15.90;99.90;;;;;;5105413;28;20212;-74
2022/10/05 09:12:32;;;;;;;;;;;15.90;99.90;;;;;;5047958;28;19913;-72
2022/10/05 09:15:15;;;;;;;;;;;15.90;99.90;;;;;;5106555;28;20272;-73
2022/10/05 09:17:59;;;;;;;;;;;16.00;99.90;;;;;;5105588;28;19961;-73
2022/10/05 09:20:31;;;;;;;;;;;16.00;99.90;;;;;;5084967;28;19911;-73
2022/10/05 09:23:21;;;;;;;;;;;16.10;99.90;;;;;;5097267;28;19977;-72
2022/10/05 09:25:55;;;;;;;;;;;16.10;99.90;;;;;;5101547;28;19912;-72
2022/10/05 09:28:25;;;;;;;;;;;16.20;99.90;;;;;;5104086;28;19998;-72
2022/10/05 09:30:56;;;;;;;;;;;16.30;99.90;;;;;;5101602;28;20371;-72
2022/10/05 09:33:43;;;;;;;;;;;16.30;99.90;;;;;;5097855;28;19915;-74
2022/10/05 09:36:32;;;;;;;;;;;16.40;99.90;;;;;;5069395;28;19913;-74
2022/10/05 09:39:31;;;;;;;;;;;16.50;99.90;;;;;;5089028;28;19916;-73
2022/10/05 09:42:20;;;;;;;;;;;16.60;99.90;;;;;;5026455;28;19913;-72
2022/10/05 09:44:55;;;;;;;;;;;16.60;99.90;;;;;;5030958;28;19924;-72
2022/10/05 09:47:49;;;;;;;;;;;16.70;99.90;;;;;;5028373;28;19971;-72
2022/10/05 09:50:33;;;;;;;;;;;16.70;99.90;;;;;;5019454;28;20212;-73
2022/10/05 09:53:14;;;;;;;;;;;16.80;99.90;;;;;;5024651;28;19917;-72
2022/10/05 09:55:53;;;;;;;;;;;16.80;99.90;;;;;;5010444;28;19913;-73
2022/10/05 09:58:47;;;;;;;;;;;16.80;99.90;;;;;;5031695;28;19924;-72
2022/10/05 10:01:15;;;;;;;;;;;16.80;99.90;;;;;;5028333;28;19933;-74
2022/10/05 10:04:16;;;;;;;;;;;16.70;99.90;;;;;;4999826;28;19921;-72
2022/10/05 10:07:03;;;;;;;;;;;16.70;99.90;;;;;;4996100;28;19918;-74
2022/10/05 10:09:29;;;;;;;;;;;16.70;99.90;;;;;;4994422;28;20009;-72
2022/10/05 10:12:15;;;;;;;;;;;16.70;99.90;;;;;;4994483;28;20289;-71
2022/10/05 10:15:08;;;;;;;;;;;16.70;99.90;;;;;;4994760;28;19913;-72
2022/10/05 10:17:44;;;;;;;;;;;16.60;99.90;;;;;;5011572;28;19917;-72
2022/10/05 10:20:24;;;;;;;;;;;16.70;99.90;;;;;;5033466;28;20016;-73
2022/10/05 10:22:56;;;;;;;;;;;16.60;99.90;;;;;;5033226;28;20370;-73
2022/10/05 10:25:36;;;;;;;;;;;16.60;99.90;;;;;;5024953;28;19975;-73
2022/10/05 10:28:03;;;;;;;;;;;16.60;99.90;;;;;;5011919;28;19928;-73
2022/10/05 10:30:50;;;;;;;;;;;16.60;99.90;;;;;;5029303;28;19917;-73
2022/10/05 10:33:22;;;;;;;;;;;16.60;99.90;;;;;;5033326;28;20001;-72
2022/10/05 10:36:02;;;;;;;;;;;16.50;99.90;;;;;;5032193;28;19971;-73
2022/10/05 10:39:06;;;;;;;;;;;16.60;99.90;;;;;;5030903;28;19918;-73
2022/10/05 10:41:53;;;;;;;;;;;16.50;99.90;;;;;;4986056;28;20013;-72
2022/10/05 10:44:25;;;;;;;;;;;16.50;99.90;;;;;;4992296;28;19960;-73
2022/10/05 10:47:10;;;;;;;;;;;16.50;99.90;;;;;;4991432;28;19918;-73
2022/10/05 10:50:06;;;;;;;;;;;16.50;99.90;;;;;;4989125;28;19918;-72
2022/10/05 10:52:54;;;;;;;;;;;16.40;99.90;;;;;;4991608;28;20257;-73
2022/10/05 10:55:41;;;;;;;;;;;16.40;99.90;;;;;;4918714;29;19927;-74
2022/10/05 10:58:07;;;;;;;;;;;16.40;99.90;;;;;;4932280;29;19911;-73
2022/10/05 11:00:44;;;;;;;;;;;16.40;99.90;;;;;;4934430;29;20305;-73
2022/10/05 11:03:28;;;;;;;;;;;16.40;99.90;;;;;;4936682;29;20437;-73
2022/10/05 11:06:16;;;;;;;;;;;16.40;99.90;;;;;;4925293;29;20291;-73
2022/10/05 11:09:04;;;;;;;;;;;16.40;99.90;;;;;;4917893;29;19933;-72
2022/10/05 11:11:52;;;;;;;;;;;16.40;99.90;;;;;;4948085;28;19957;-72
2022/10/05 11:14:32;;;;;;;;;;;16.30;99.90;;;;;;5011860;28;20217;-72
2022/10/05 11:17:19;;;;;;;;;;;16.30;99.90;;;;;;5010907;28;19921;-73
2022/10/05 11:20:08;;;;;;;;;;;16.40;99.90;;;;;;5008981;28;20000;-72
2022/10/05 11:23:04;;;;;;;;;;;16.40;99.90;;;;;;5046766;28;19921;-72
2022/10/05 11:25:43;;;;;;;;;;;16.40;99.90;;;;;;5043376;28;19914;-73
2022/10/05 11:28:13;;;;;;;;;;;16.40;99.90;;;;;;5105488;28;19912;-74
2022/10/05 11:31:05;;;;;;;;;;;16.40;99.90;;;;;;5105342;28;20241;-72
2022/10/05 11:33:50;;;;;;;;;;;16.40;99.90;;;;;;5083225;28;20205;-73
2022/10/05 11:36:42;;;;;;;;;;;16.40;99.90;;;;;;5110338;28;19968;-72
2022/10/05 11:39:08;;;;;;;;;;;16.40;99.90;;;;;;5093812;28;19938;-73
2022/10/05 11:42:00;;;;;;;;;;;16.50;99.90;;;;;;5099222;28;19916;-73
2022/10/05 11:44:44;;;;;;;;;;;16.40;99.90;;;;;;5095881;28;19922;-74
2022/10/05 11:47:22;;;;;;;;;;;16.50;99.90;;;;;;5090999;28;19938;-71
2022/10/05 11:50:08;;;;;;;;;;;16.50;99.90;;;;;;5085544;28;20211;-72
2022/10/05 11:52:45;;;;;;;;;;;16.50;99.90;;;;;;5084480;28;19931;-73
2022/10/05 11:55:21;;;;;;;;;;;16.50;99.90;;;;;;5109535;28;19909;-72
2022/10/05 11:57:49;;;;;;;;;;;16.50;99.90;;;;;;5094592;28;19935;-71
2022/10/05 12:00:15;;;;;;;;;;;16.50;99.90;;;;;;5108598;28;19919;-72
2022/10/05 12:03:01;;;;;;;;;;;16.60;99.90;;;;;;5098102;28;20261;-73
2022/10/05 12:05:46;;;;;;;;;;;16.60;99.90;;;;;;5085650;28;19912;-73
2022/10/05 12:08:33;;;;;;;;;;;16.60;99.90;;;;;;5066699;28;20222;-72
2022/10/05 12:11:13;;;;;;;;;;;16.60;99.90;;;;;;5088326;28;19912;-73
2022/10/05 12:13:45;;;;;;;;;;;16.60;99.90;;;;;;5096671;28;19912;-73
2022/10/05 12:16:27;;;;;;;;;;;16.60;99.90;;;;;;5095693;28;19920;-73
2022/10/05 12:18:56;;;;;;;;;;;16.60;99.90;;;;;;5076121;28;19959;-72
2022/10/05 12:21:34;;;;;;;;;;;16.60;99.90;;;;;;5078715;28;19927;-73
2022/10/05 12:24:26;;;;;;;;;;;16.60;99.90;;;;;;5096500;28;19951;-73
2022/10/05 12:27:03;;;;;;;;;;;16.60;99.90;;;;;;5073619;28;19965;-72
2022/10/05 12:29:40;;;;;;;;;;;16.70;99.90;;;;;;5078419;28;19944;-73
2022/10/05 12:32:10;;;;;;;;;;;16.70;99.90;;;;;;5095879;28;19954;-73
2022/10/05 12:34:41;;;;;;;;;;;16.80;99.90;;;;;;5096982;28;19908;-74
2022/10/05 12:37:27;;;;;;;;;;;16.80;99.90;;;;;;5078118;28;19919;-75
2022/10/05 12:40:05;;;;;;;;;;;16.90;99.90;;;;;;5096503;28;19916;-73
2022/10/05 12:42:33;;;;;;;;;;;16.90;99.90;;;;;;5102381;28;19965;-73
2022/10/05 12:45:28;;;;;;;;;;;16.90;99.90;;;;;;5080981;28;20372;-74
2022/10/05 12:48:04;;;;;;;;;;;17.00;99.90;;;;;;4973262;28;19926;-73
2022/10/05 12:50:37;;;;;;;;;;;17.00;99.90;;;;;;4984863;28;20372;-73
2022/10/05 12:53:14;;;;;;;;;;;17.00;99.90;;;;;;4990952;28;19921;-73
2022/10/05 12:56:02;;;;;;;;;;;17.00;99.90;;;;;;4958679;28;19997;-74
2022/10/05 12:58:37;;;;;;;;;;;17.00;99.90;;;;;;4989108;28;20360;-74
2022/10/05 13:01:22;;;;;;;;;;;17.00;99.90;;;;;;4991731;28;19918;-74
2022/10/05 13:03:53;;;;;;;;;;;17.00;99.90;;;;;;4976669;28;19921;-74
2022/10/05 13:06:26;;;;;;;;;;;17.00;99.90;;;;;;4972676;28;19936;-72
2022/10/05 13:08:58;;;;;;;;;;;17.00;99.90;;;;;;4985915;28;19917;-74
2022/10/05 13:11:32;;;;;;;;;;;17.00;99.90;;;;;;4977709;28;19914;-73
2022/10/05 13:14:16;;;;;;;;;;;17.00;99.90;;;;;;4974155;28;19941;-73
2022/10/05 13:16:49;;;;;;;;;;;16.90;99.90;;;;;;4968801;28;19928;-73
2022/10/05 13:19:30;;;;;;;;;;;16.90;99.90;;;;;;4954161;28;19921;-73
2022/10/05 13:22:17;;;;;;;;;;;17.00;99.90;;;;;;4983415;28;20597;-72
2022/10/05 13:25:03;;;;;;;;;;;17.00;99.90;;;;;;5012895;28;19956;-74
2022/10/05 13:27:30;;;;;;;;;;;17.00;99.90;;;;;;5004265;28;20305;-72
2022/10/05 13:30:02;;;;;;;;;;;17.10;99.90;;;;;;5035030;28;20415;-74
2022/10/05 13:32:36;;;;;;;;;;;17.00;99.90;;;;;;5033437;28;20050;-73
2022/10/05 13:35:17;;;;;;;;;;;17.00;99.90;;;;;;5033609;28;19917;-73
2022/10/05 13:38:02;;;;;;;;;;;17.10;99.90;;;;;;5034539;28;19940;-73
2022/10/05 13:40:46;;;;;;;;;;;17.10;99.90;;;;;;5033656;28;20308;-72
2022/10/05 13:43:37;;;;;;;;;;;17.10;99.90;;;;;;5018702;28;19913;-74
2022/10/05 13:46:10;;;;;;;;;;;17.10;99.90;;;;;;5031112;28;20295;-72
2022/10/05 13:48:45;;;;;;;;;;;17.10;99.90;;;;;;4984013;28;19926;-72
2022/10/05 13:51:15;;;;;;;;;;;17.20;99.90;;;;;;5024864;28;19913;-73
2022/10/05 13:53:54;;;;;;;;;;;17.20;99.90;;;;;;5024507;28;19913;-73
2022/10/05 13:56:50;;;;;;;;;;;17.20;99.90;;;;;;5024834;28;19909;-74
2022/10/05 13:59:32;;;;;;;;;;;17.20;99.90;;;;;;5004324;28;19922;-74
2022/10/05 14:02:02;;;;;;;;;;;17.20;99.90;;;;;;5027968;28;19921;-73
2022/10/05 14:04:50;;;;;;;;;;;17.20;99.90;;;;;;5053488;28;20008;-73
2022/10/05 14:07:21;;;;;;;;;;;17.20;99.90;;;;;;5070681;28;19923;-72
2022/10/05 14:09:48;;;;;;;;;;;17.20;99.90;;;;;;5067634;28;19916;-74
2022/10/05 14:12:21;;;;;;;;;;;17.20;99.90;;;;;;5061760;28;19915;-73
2022/10/05 14:14:49;;;;;;;;;;;17.20;99.90;;;;;;5058254;28;20489;-72
2022/10/05 14:17:16;;;;;;;;;;;17.20;99.90;;;;;;5058842;28;19913;-72
2022/10/05 14:19:43;;;;;;;;;;;17.20;99.90;;;;;;5047441;28;19921;-73
2022/10/05 14:22:09;;;;;;;;;;;17.20;99.90;;;;;;5057740;28;19916;-73
2022/10/05 14:24:36;;;;;;;;;;;17.20;99.90;;;;;;5072072;28;19923;-72
2022/10/05 14:27:20;;;;;;;;;;;17.20;99.90;;;;;;5067494;28;19912;-74
2022/10/05 14:29:53;;;;;;;;;;;17.20;99.90;;;;;;5077167;28;19974;-73
2022/10/05 14:32:21;;;;;;;;;;;17.10;99.90;;;;;;5064326;28;19917;-72
2022/10/05 14:35:00;;;;;;;;;;;17.10;99.90;;;;;;5065832;28;20223;-72
2022/10/05 14:37:42;;;;;;;;;;;17.10;99.90;;;;;;5058777;28;19940;-74
2022/10/05 14:40:22;;;;;;;;;;;17.10;99.90;;;;;;5053455;28;19921;-74
2022/10/05 14:42:48;;;;;;;;;;;17.10;99.90;;;;;;5054708;28;19916;-73
2022/10/05 14:45:18;;;;;;;;;;;17.10;99.90;;;;;;5052318;28;19959;-73
2022/10/05 14:47:52;;;;;;;;;;;17.10;99.90;;;;;;5073277;28;19923;-74
2022/10/05 14:50:20;;;;;;;;;;;17.10;99.90;;;;;;5095852;28;19921;-73
2022/10/05 14:52:59;;;;;;;;;;;17.20;99.90;;;;;;5097257;28;19908;-72
2022/10/05 14:55:50;;;;;;;;;;;17.20;99.90;;;;;;5074226;28;20353;-72
2022/10/05 14:58:35;;;;;;;;;;;17.20;99.90;;;;;;5091270;28;19942;-73
2022/10/05 15:01:17;;;;;;;;;;;17.20;99.90;;;;;;5098427;28;20359;-74
2022/10/05 15:03:46;;;;;;;;;;;17.20;99.90;;;;;;5085288;28;20014;-73
2022/10/05 15:06:20;;;;;;;;;;;17.20;99.90;;;;;;5107256;28;19924;-74
2022/10/05 15:08:58;;;;;;;;;;;17.20;99.90;;;;;;5102381;28;19908;-73
2022/10/05 15:11:27;;;;;;;;;;;17.20;99.90;;;;;;5097256;28;20308;-73
2022/10/05 15:13:54;;;;;;;;;;;17.10;99.90;;;;;;5096663;28;19916;-72
2022/10/05 15:16:23;;;;;;;;;;;17.10;99.90;;;;;;5098571;28;20003;-72
2022/10/05 15:19:03;;;;;;;;;;;17.10;99.90;;;;;;5096705;28;19997;-73